Jack Guidry — WDF2422 — position and weather

sailwx.info

Track history (hours):
 
Tides and Currents Weather Stations Pressure Air Temp Water Temp Dewpoint Dewpoint Depression Visibility Wind Speed Wind Dir Waves Ship Positions

Jack Guidry

Owner: Enterprise Marine Services, LLC, San Antonio, TX. More information available from US FCC via Universal Licensing System and Coast Guard Vessel Documentation Center.

Last reported at 2018-Feb-17 02:16 UTC. Time now 2018-Feb-17 19:58 UTC.
Position N 29°25' W 094°44'.

Length 22 m; draft 3 m.

Type: . MMSI: 367003430.

Date/timePositionNaut miles runAvg speedWind from/ knotsBaromVisibWave heightAir tempDewpointWater temp
2018-Feb-17 02:16N 29°25' W 094°44'0 0.0
2018-Feb-17 01:55N 29°25' W 094°44'13 1.9
2018-Feb-16 18:54N 29°34' W 094°55'3 7.2
2018-Feb-16 18:30N 29°36' W 094°57'5 7.9
2018-Feb-16 17:53N 29°41' W 094°59'3 7.0
2018-Feb-16 17:24N 29°43' W 095°01'  
2018-Feb-11 21:13N 29°42' W 095°01'1 5.8
2018-Feb-11 21:00N 29°42' W 094°59'3 5.8
2018-Feb-11 20:29N 29°39' W 094°58'3 6.5
2018-Feb-11 20:00N 29°36' W 094°57'  
Track history (hours):
 
Tides and Currents Weather Stations Pressure Air Temp Water Temp Dewpoint Dewpoint Depression Visibility Wind Speed Wind Dir Waves Ship Positions

Jack Guidry

Owner: Enterprise Marine Services, LLC, San Antonio, TX. More information available from US FCC via Universal Licensing System and Coast Guard Vessel Documentation Center.

Last reported at 2018-Feb-17 02:16 UTC. Time now 2018-Feb-17 19:58 UTC.
Position N 29°25' W 094°44'.

Length 22 m; draft 3 m.

Type: . MMSI: 367003430.

Date/timePositionNaut miles runAvg speedWind from/ knotsBaromVisibWave heightAir tempDewpointWater temp
2018-Feb-17 02:16N 29°25' W 094°44'0 0.0
2018-Feb-17 01:55N 29°25' W 094°44'13 1.9
2018-Feb-16 18:54N 29°34' W 094°55'3 7.2
2018-Feb-16 18:30N 29°36' W 094°57'5 7.9
2018-Feb-16 17:53N 29°41' W 094°59'3 7.0
2018-Feb-16 17:24N 29°43' W 095°01'  
2018-Feb-11 21:13N 29°42' W 095°01'1 5.8
2018-Feb-11 21:00N 29°42' W 094°59'3 5.8
2018-Feb-11 20:29N 29°39' W 094°58'3 6.5
2018-Feb-11 20:00N 29°36' W 094°57'  

Dump ship's entire track history